createdAt,value
2017-07-28T00:00:08.367Z,16.10
2017-07-28T00:02:41.953Z,16.10
2017-07-28T00:05:15.859Z,16.10
2017-07-28T00:07:50.146Z,16.00
2017-07-28T00:10:23.844Z,16.00
2017-07-28T00:12:58.379Z,16.00
2017-07-28T00:15:32.102Z,15.90
2017-07-28T00:18:05.670Z,16.00
2017-07-28T00:20:39.291Z,16.00
2017-07-28T00:23:13.587Z,16.00
2017-07-28T00:25:47.339Z,15.90
2017-07-28T00:28:20.902Z,16.00
2017-07-28T00:30:54.534Z,15.90
2017-07-28T00:33:28.152Z,15.90
2017-07-28T00:36:01.712Z,15.90
2017-07-28T00:38:35.318Z,15.90
2017-07-28T00:41:09.096Z,15.90
2017-07-28T00:43:42.626Z,15.80
2017-07-28T00:46:16.127Z,15.80
2017-07-28T00:48:50.487Z,15.90
2017-07-28T00:51:24.238Z,15.90
2017-07-28T00:53:58.524Z,15.90
2017-07-28T00:56:33.055Z,15.90
2017-07-28T00:59:07.363Z,15.90
2017-07-28T01:01:41.875Z,15.80
2017-07-28T01:04:16.424Z,15.80
2017-07-28T01:06:50.188Z,15.80
2017-07-28T01:09:23.744Z,15.80
2017-07-28T01:11:58.318Z,15.90
2017-07-28T01:14:32.076Z,15.90
2017-07-28T01:17:06.663Z,15.80
2017-07-28T01:19:41.211Z,15.80
2017-07-28T01:22:15.224Z,15.80
2017-07-28T01:24:50.000Z,15.50
2017-07-28T01:27:23.623Z,15.40
2017-07-28T01:29:57.180Z,15.40
2017-07-28T01:32:30.920Z,15.50
2017-07-28T01:35:04.613Z,15.50
2017-07-28T01:37:38.225Z,15.60
2017-07-28T01:40:12.015Z,15.70
2017-07-28T01:42:45.656Z,15.60
2017-07-28T01:45:19.240Z,15.60
2017-07-28T01:47:52.872Z,15.60
2017-07-28T01:50:26.411Z,15.60
2017-07-28T01:53:00.055Z,15.50
2017-07-28T01:55:33.636Z,15.50
2017-07-28T01:58:07.447Z,15.50
2017-07-28T02:00:40.986Z,15.50
2017-07-28T02:03:14.568Z,15.40
2017-07-28T02:05:48.112Z,15.40
2017-07-28T02:08:21.659Z,15.50
2017-07-28T02:10:55.163Z,15.50
2017-07-28T02:13:28.939Z,15.40
2017-07-28T02:16:02.595Z,15.50
2017-07-28T02:18:36.147Z,15.40
2017-07-28T02:21:09.750Z,15.30
2017-07-28T02:23:43.320Z,15.20
2017-07-28T02:26:16.916Z,15.10
2017-07-28T02:28:50.542Z,15.10
2017-07-28T02:31:24.140Z,15.10
2017-07-28T02:33:57.746Z,15.10
2017-07-28T02:36:31.347Z,15.20
2017-07-28T02:39:04.932Z,15.10
2017-07-28T02:41:38.414Z,15.30
2017-07-28T02:44:12.036Z,15.30
2017-07-28T02:46:45.629Z,15.40
2017-07-28T02:49:19.214Z,15.40
2017-07-28T02:51:52.803Z,15.50
2017-07-28T02:54:26.444Z,15.40
2017-07-28T02:57:00.052Z,15.30
2017-07-28T02:59:33.611Z,15.20
2017-07-28T03:02:07.945Z,15.30
2017-07-28T03:04:41.767Z,15.30
2017-07-28T03:07:15.492Z,15.20
2017-07-28T03:09:49.102Z,15.10
2017-07-28T03:12:22.668Z,15.10
2017-07-28T03:14:56.331Z,15.10
2017-07-28T03:17:29.880Z,15.00
2017-07-28T03:20:03.465Z,15.00
2017-07-28T03:22:37.070Z,15.00
2017-07-28T03:25:10.694Z,14.90
2017-07-28T03:27:44.396Z,15.00
2017-07-28T03:30:18.012Z,15.00
2017-07-28T03:32:51.759Z,14.90
2017-07-28T03:35:26.213Z,15.10
2017-07-28T03:37:59.915Z,15.10
2017-07-28T03:40:33.484Z,15.20
2017-07-28T03:43:07.231Z,15.20
2017-07-28T03:45:40.756Z,15.20
2017-07-28T03:48:14.395Z,15.20
2017-07-28T03:50:48.213Z,15.20
2017-07-28T03:53:21.880Z,15.20
2017-07-28T03:55:56.229Z,15.20
2017-07-28T03:58:29.915Z,15.10
2017-07-28T04:01:03.512Z,15.10
2017-07-28T04:03:37.155Z,15.00
2017-07-28T04:06:10.747Z,15.00
2017-07-28T04:08:44.333Z,15.10
2017-07-28T04:11:17.916Z,15.10
2017-07-28T04:13:51.543Z,15.10
2017-07-28T04:16:25.115Z,15.10
2017-07-28T04:18:58.611Z,15.10
2017-07-28T04:21:32.218Z,15.10
2017-07-28T04:24:05.859Z,15.00
2017-07-28T04:26:40.457Z,15.00
2017-07-28T04:29:14.183Z,15.00
2017-07-28T04:31:47.740Z,14.90
2017-07-28T04:34:21.292Z,14.90
2017-07-28T04:36:54.828Z,15.10
2017-07-28T04:39:28.717Z,15.00
2017-07-28T04:42:02.290Z,15.00
2017-07-28T04:44:35.929Z,15.10
2017-07-28T04:47:09.644Z,15.10
2017-07-28T04:49:43.229Z,15.10
2017-07-28T04:52:16.799Z,15.20
2017-07-28T04:54:50.387Z,15.20
2017-07-28T04:57:23.949Z,15.30
2017-07-28T04:59:57.476Z,15.30
2017-07-28T05:02:31.051Z,15.30
2017-07-28T05:05:04.576Z,15.30
2017-07-28T05:07:38.160Z,15.30
2017-07-28T05:10:11.672Z,15.30
2017-07-28T05:12:45.164Z,15.30
2017-07-28T05:15:18.695Z,15.30
2017-07-28T05:17:52.274Z,15.30
2017-07-28T05:20:26.564Z,15.40
2017-07-28T05:23:00.199Z,15.40
2017-07-28T05:25:34.727Z,15.40
2017-07-28T05:28:08.308Z,15.40
2017-07-28T05:30:41.860Z,15.40
2017-07-28T05:33:15.395Z,15.40
2017-07-28T05:35:49.735Z,15.50
2017-07-28T05:38:23.460Z,15.50
2017-07-28T05:40:57.011Z,15.50
2017-07-28T05:43:31.356Z,15.60
2017-07-28T05:46:04.935Z,15.50
2017-07-28T05:48:38.463Z,15.60
2017-07-28T05:51:12.736Z,15.60
2017-07-28T05:53:46.416Z,15.60
2017-07-28T05:56:19.930Z,15.60
2017-07-28T05:58:53.551Z,15.60
2017-07-28T06:01:27.135Z,15.60
2017-07-28T06:04:00.659Z,15.70
2017-07-28T06:06:34.276Z,15.70
2017-07-28T06:09:07.884Z,15.70
2017-07-28T06:11:41.400Z,15.70
2017-07-28T06:14:14.945Z,15.70
2017-07-28T06:16:48.548Z,15.70
2017-07-28T06:19:22.285Z,15.70
2017-07-28T06:21:55.848Z,15.80
2017-07-28T06:24:29.411Z,15.80
2017-07-28T06:27:03.064Z,15.80
2017-07-28T06:29:36.672Z,15.80
2017-07-28T06:32:10.276Z,15.90
2017-07-28T06:34:43.828Z,16.00
2017-07-28T06:37:18.328Z,16.00
2017-07-28T06:39:51.983Z,16.00
2017-07-28T06:42:25.677Z,16.00
2017-07-28T06:44:59.320Z,16.10
2017-07-28T06:47:32.899Z,16.10
2017-07-28T06:50:06.556Z,16.10
2017-07-28T06:52:40.215Z,16.10
2017-07-28T06:55:13.802Z,16.10
2017-07-28T06:57:47.560Z,16.20
2017-07-28T07:00:21.184Z,16.20
2017-07-28T07:02:54.775Z,16.20
2017-07-28T07:05:28.384Z,16.20
2017-07-28T07:08:02.020Z,16.20
2017-07-28T07:10:35.559Z,16.10
2017-07-28T07:13:09.219Z,16.10
2017-07-28T07:15:42.771Z,16.10
2017-07-28T07:18:16.414Z,16.10
2017-07-28T07:20:49.985Z,16.10
2017-07-28T07:23:24.315Z,16.10
2017-07-28T07:25:57.917Z,16.10
2017-07-28T07:28:31.512Z,16.10
2017-07-28T07:31:05.028Z,16.00
2017-07-28T07:33:38.700Z,16.00
2017-07-28T07:36:12.431Z,16.00
2017-07-28T07:38:46.120Z,16.00
2017-07-28T07:41:19.705Z,16.00
2017-07-28T07:43:53.184Z,15.90
2017-07-28T07:46:27.542Z,15.80
2017-07-28T07:49:01.960Z,15.60
2017-07-28T07:51:35.955Z,15.60
2017-07-28T07:54:10.297Z,15.70
2017-07-28T07:56:43.949Z,15.70
2017-07-28T07:59:17.560Z,15.80
2017-07-28T08:01:51.135Z,15.70
2017-07-28T08:04:24.800Z,15.60
2017-07-28T08:06:58.408Z,15.70
2017-07-28T08:09:31.959Z,15.70
2017-07-28T08:12:05.463Z,15.70
2017-07-28T08:14:39.096Z,15.70
2017-07-28T08:17:12.571Z,15.70
2017-07-28T08:19:46.216Z,15.60
2017-07-28T08:22:19.888Z,15.50
2017-07-28T08:24:53.447Z,15.60
2017-07-28T08:27:26.975Z,15.40
2017-07-28T08:30:00.573Z,15.50
2017-07-28T08:32:34.191Z,15.60
2017-07-28T08:35:07.694Z,15.40
2017-07-28T08:37:41.272Z,15.40
2017-07-28T08:40:14.860Z,15.40
2017-07-28T08:42:48.473Z,15.30
2017-07-28T08:45:22.789Z,15.30
2017-07-28T08:47:56.504Z,15.30
2017-07-28T08:50:30.066Z,15.40
2017-07-28T08:53:04.513Z,15.50
2017-07-28T08:55:38.232Z,15.50
2017-07-28T08:58:11.826Z,15.50
2017-07-28T09:00:45.340Z,15.50
2017-07-28T09:03:19.651Z,15.50
2017-07-28T09:05:53.339Z,15.40
2017-07-28T09:08:26.947Z,15.50
2017-07-28T09:11:01.252Z,15.50
2017-07-28T09:13:35.688Z,15.50
2017-07-28T09:16:09.296Z,15.60
2017-07-28T09:18:42.959Z,15.60
2017-07-28T09:21:16.596Z,15.60
2017-07-28T09:23:50.170Z,15.80
2017-07-28T09:26:23.684Z,15.90
2017-07-28T09:28:57.235Z,16.00
2017-07-28T09:31:30.747Z,15.90
2017-07-28T09:34:04.418Z,16.00
2017-07-28T09:36:38.209Z,15.90
2017-07-28T09:39:11.788Z,15.80
2017-07-28T09:41:45.335Z,15.70
2017-07-28T09:44:18.989Z,15.60
2017-07-28T09:46:52.797Z,15.50
2017-07-28T09:49:26.400Z,15.40
2017-07-28T09:51:59.903Z,15.40
2017-07-28T09:54:33.499Z,15.40
2017-07-28T09:57:07.083Z,15.40
2017-07-28T09:59:40.696Z,15.40
2017-07-28T10:02:15.292Z,15.40
2017-07-28T10:04:49.052Z,15.40
2017-07-28T10:07:22.605Z,15.40
2017-07-28T10:09:56.947Z,15.60
2017-07-28T10:12:30.526Z,15.60
2017-07-28T10:15:04.129Z,15.60
2017-07-28T10:17:37.859Z,15.70
2017-07-28T10:20:12.272Z,15.70
2017-07-28T10:22:45.983Z,15.70
2017-07-28T10:25:19.566Z,15.70
2017-07-28T10:27:54.056Z,15.50
2017-07-28T10:30:27.882Z,15.50
2017-07-28T10:33:01.396Z,15.60
2017-07-28T10:35:35.038Z,15.70
2017-07-28T10:38:08.835Z,15.70
2017-07-28T10:40:42.425Z,15.50
2017-07-28T10:43:16.011Z,15.50
2017-07-28T10:45:49.559Z,15.60
2017-07-28T10:48:23.112Z,15.60
2017-07-28T10:50:56.663Z,15.60
2017-07-28T10:53:30.236Z,15.70
2017-07-28T10:56:04.599Z,15.90
2017-07-28T10:58:38.302Z,15.80
2017-07-28T11:01:12.209Z,15.70
2017-07-28T11:03:46.549Z,15.60
2017-07-28T11:06:20.259Z,15.50
2017-07-28T11:08:53.844Z,15.70
2017-07-28T11:11:27.355Z,15.50
2017-07-28T11:14:00.856Z,15.40
2017-07-28T11:16:34.387Z,15.40
2017-07-28T11:19:07.932Z,15.40
2017-07-28T11:21:41.524Z,15.50
2017-07-28T11:24:15.096Z,15.50
2017-07-28T11:26:48.628Z,15.60
2017-07-28T11:29:22.243Z,15.70
2017-07-28T11:31:55.821Z,15.80
2017-07-28T11:34:29.423Z,15.90
2017-07-28T11:37:03.044Z,16.00
2017-07-28T11:39:36.668Z,16.00
2017-07-28T11:42:10.203Z,16.00
2017-07-28T11:44:43.760Z,16.10
2017-07-28T11:47:17.311Z,16.00
2017-07-28T11:49:50.868Z,15.90
2017-07-28T11:52:24.404Z,15.90
2017-07-28T11:54:57.968Z,16.00
2017-07-28T11:57:31.611Z,15.80
2017-07-28T12:00:05.226Z,15.90
2017-07-28T12:02:39.025Z,15.80
2017-07-28T12:05:12.621Z,15.90
2017-07-28T12:07:46.328Z,15.80
2017-07-28T12:10:19.919Z,15.70
2017-07-28T12:12:53.515Z,15.80
2017-07-28T12:15:27.052Z,15.90
2017-07-28T12:18:00.630Z,16.00
2017-07-28T12:20:34.201Z,15.90
2017-07-28T12:23:07.725Z,15.90
2017-07-28T12:25:41.348Z,15.90
2017-07-28T12:28:14.908Z,15.80
2017-07-28T12:30:48.570Z,15.80
2017-07-28T12:33:22.056Z,15.70
2017-07-28T12:35:55.659Z,15.80
2017-07-28T12:38:29.209Z,15.80
2017-07-28T12:41:02.769Z,15.90
2017-07-28T12:43:36.476Z,15.80
2017-07-28T12:46:10.157Z,15.80
2017-07-28T12:48:43.717Z,15.80
2017-07-28T12:51:17.489Z,15.80
2017-07-28T12:53:51.136Z,15.90
2017-07-28T12:56:24.892Z,15.90
2017-07-28T12:58:58.540Z,15.90
2017-07-28T13:01:32.377Z,15.90
2017-07-28T13:04:06.056Z,16.00
2017-07-28T13:06:39.653Z,16.10
2017-07-28T13:09:13.264Z,16.10
2017-07-28T13:11:46.866Z,16.20
2017-07-28T13:14:20.407Z,16.20
2017-07-28T13:16:54.059Z,16.20
2017-07-28T13:19:27.648Z,16.20
2017-07-28T13:22:01.265Z,16.20
2017-07-28T13:24:34.828Z,16.20
2017-07-28T13:27:08.476Z,16.20
2017-07-28T13:29:42.768Z,16.20
2017-07-28T13:32:16.411Z,16.20
2017-07-28T13:34:49.949Z,16.10
2017-07-28T13:37:23.592Z,16.10
2017-07-28T13:39:57.179Z,16.20
2017-07-28T13:42:30.776Z,16.30
2017-07-28T13:45:04.345Z,16.40
2017-07-28T13:47:38.712Z,16.30
2017-07-28T13:50:12.423Z,16.30
2017-07-28T13:52:46.002Z,16.30
2017-07-28T13:55:20.310Z,16.20
2017-07-28T13:57:54.140Z,16.20
2017-07-28T14:00:27.692Z,16.20
2017-07-28T14:03:01.239Z,16.30
2017-07-28T14:05:34.805Z,16.30
2017-07-28T14:08:08.347Z,16.20
2017-07-28T14:10:41.912Z,16.20
2017-07-28T14:13:15.451Z,16.30
2017-07-28T14:15:49.072Z,16.40
2017-07-28T14:18:22.620Z,16.40
2017-07-28T14:20:56.636Z,16.30
2017-07-28T14:23:31.111Z,16.40
2017-07-28T14:26:05.561Z,16.40
2017-07-28T14:28:39.154Z,16.40
2017-07-28T14:31:12.739Z,16.40
2017-07-28T14:33:46.406Z,16.50
2017-07-28T14:36:19.932Z,16.40
2017-07-28T14:38:53.576Z,16.40
2017-07-28T14:41:27.143Z,16.50
2017-07-28T14:44:00.706Z,16.50
2017-07-28T14:46:34.267Z,16.50
2017-07-28T14:49:10.317Z,16.60
2017-07-28T14:51:44.827Z,16.70
2017-07-28T14:54:18.567Z,16.70
2017-07-28T14:56:52.175Z,16.80
2017-07-28T14:59:25.836Z,16.80
2017-07-28T15:01:59.504Z,16.90
2017-07-28T15:04:33.866Z,16.90
2017-07-28T15:07:07.486Z,16.90
2017-07-28T15:09:41.079Z,16.80
2017-07-28T15:12:14.665Z,16.80
2017-07-28T15:14:48.257Z,16.90
2017-07-28T15:17:21.909Z,17.00
2017-07-28T15:19:55.436Z,17.10
2017-07-28T15:22:29.203Z,17.20
2017-07-28T15:25:02.732Z,17.50
2017-07-28T15:27:36.296Z,17.60
2017-07-28T15:30:09.855Z,17.80
2017-07-28T15:32:44.199Z,17.60
2017-07-28T15:35:17.878Z,17.60
2017-07-28T15:37:51.406Z,17.50
2017-07-28T15:40:24.990Z,17.50
2017-07-28T15:42:58.581Z,17.60
2017-07-28T15:45:32.162Z,17.70
2017-07-28T15:48:05.912Z,17.70
2017-07-28T15:50:39.463Z,17.60
2017-07-28T15:53:13.052Z,17.60
2017-07-28T15:55:47.595Z,17.60
2017-07-28T15:58:21.335Z,17.60
2017-07-28T16:00:55.145Z,17.50
2017-07-28T16:03:28.720Z,17.50
2017-07-28T16:06:02.322Z,17.50
2017-07-28T16:08:35.912Z,17.50
2017-07-28T16:11:09.523Z,17.60
2017-07-28T16:13:43.028Z,17.60
2017-07-28T16:16:17.359Z,17.60
2017-07-28T16:18:51.150Z,17.50
2017-07-28T16:21:24.685Z,17.60
2017-07-28T16:23:58.436Z,17.50
2017-07-28T16:26:31.980Z,17.60
2017-07-28T16:29:05.503Z,17.60
2017-07-28T16:31:39.102Z,17.70
2017-07-28T16:34:12.860Z,17.80
2017-07-28T16:36:46.467Z,17.90
2017-07-28T16:39:20.067Z,18.00
2017-07-28T16:41:53.644Z,18.10
2017-07-28T16:44:27.256Z,18.20
2017-07-28T16:47:01.583Z,18.60
2017-07-28T16:49:35.284Z,18.60
2017-07-28T16:52:09.008Z,18.70
2017-07-28T16:54:42.583Z,18.60
2017-07-28T16:57:16.363Z,18.60
2017-07-28T16:59:49.947Z,18.80
2017-07-28T17:02:23.483Z,19.00
2017-07-28T17:04:57.055Z,19.00
2017-07-28T17:07:30.671Z,19.10
2017-07-28T17:10:04.206Z,19.40
2017-07-28T17:12:37.799Z,19.50
2017-07-28T17:15:12.067Z,19.60
2017-07-28T17:17:45.774Z,19.60
2017-07-28T17:20:19.362Z,19.50
2017-07-28T17:22:53.032Z,19.40
2017-07-28T17:25:26.694Z,19.60
2017-07-28T17:28:00.251Z,19.70
2017-07-28T17:30:33.778Z,19.50
2017-07-28T17:33:08.129Z,19.00
2017-07-28T17:35:41.691Z,18.90
2017-07-28T17:38:15.334Z,19.00
2017-07-28T17:40:52.760Z,19.10
2017-07-28T17:43:26.347Z,19.00
2017-07-28T17:45:59.882Z,19.00
2017-07-28T17:48:33.508Z,18.80
2017-07-28T17:51:07.291Z,18.80
2017-07-28T17:53:40.939Z,18.80
2017-07-28T17:56:14.504Z,18.70
2017-07-28T17:58:48.852Z,18.80
2017-07-28T18:01:22.518Z,18.80
2017-07-28T18:03:56.163Z,18.70
2017-07-28T18:06:29.748Z,18.50
2017-07-28T18:09:03.368Z,18.50
2017-07-28T18:11:37.288Z,18.30
2017-07-28T18:14:10.952Z,18.30
2017-07-28T18:16:44.641Z,18.30
2017-07-28T18:19:18.196Z,18.30
2017-07-28T18:21:51.825Z,18.10
2017-07-28T18:24:25.408Z,18.00
2017-07-28T18:26:59.001Z,18.10
2017-07-28T18:29:32.571Z,18.10
2017-07-28T18:32:06.149Z,18.10
2017-07-28T18:34:39.638Z,18.10
2017-07-28T18:37:13.280Z,18.00
2017-07-28T18:39:47.250Z,17.90
2017-07-28T18:42:20.921Z,17.90
2017-07-28T18:44:54.548Z,17.80
2017-07-28T18:47:28.944Z,17.60
2017-07-28T18:50:03.343Z,17.50
2017-07-28T18:52:37.872Z,17.60
2017-07-28T18:55:11.594Z,17.50
2017-07-28T18:57:45.140Z,17.40
2017-07-28T19:00:19.752Z,17.40
2017-07-28T19:02:53.433Z,17.40
2017-07-28T19:05:27.113Z,17.30
2017-07-28T19:08:01.684Z,17.20
2017-07-28T19:10:35.412Z,17.20
2017-07-28T19:13:09.044Z,17.20
2017-07-28T19:15:42.872Z,17.20
2017-07-28T19:18:16.596Z,17.10
2017-07-28T19:20:50.255Z,17.10
2017-07-28T19:23:23.948Z,17.10
2017-07-28T19:25:58.441Z,17.00
2017-07-28T19:28:32.203Z,17.00
2017-07-28T19:31:05.847Z,16.80
2017-07-28T19:33:39.514Z,16.80
2017-07-28T19:36:13.695Z,16.80
2017-07-28T19:38:47.403Z,16.80
2017-07-28T19:41:21.087Z,16.80
2017-07-28T19:43:54.540Z,16.70
2017-07-28T19:46:28.180Z,16.70
2017-07-28T19:51:59.439Z,16.40
2017-07-28T19:54:33.271Z,16.50
2017-07-28T19:57:07.826Z,16.50
2017-07-28T19:59:41.479Z,16.50
2017-07-28T20:02:15.891Z,16.40
2017-07-28T20:04:49.658Z,16.30
2017-07-28T20:07:23.246Z,16.30
2017-07-28T20:09:57.863Z,16.30
2017-07-28T20:12:31.629Z,16.20
2017-07-28T20:15:05.420Z,16.20
2017-07-28T20:17:39.097Z,16.20
2017-07-28T20:20:12.719Z,16.20
2017-07-28T20:22:46.341Z,16.20
2017-07-28T20:25:21.053Z,16.10
2017-07-28T20:27:54.668Z,16.10
2017-07-28T20:30:28.492Z,16.10
2017-07-28T20:33:02.249Z,15.90
2017-07-28T20:35:35.790Z,15.80
2017-07-28T20:38:10.147Z,15.90
2017-07-28T20:40:43.898Z,15.90
2017-07-28T20:43:17.557Z,15.90
2017-07-28T20:45:51.170Z,15.90
2017-07-28T20:48:24.759Z,15.80
2017-07-28T20:50:58.316Z,15.70
2017-07-28T20:53:32.947Z,15.70
2017-07-28T20:56:06.593Z,15.70
2017-07-28T20:58:40.757Z,15.70
2017-07-28T21:01:14.464Z,15.70
2017-07-28T21:03:48.102Z,15.70
2017-07-28T21:06:21.714Z,15.70
2017-07-28T21:08:55.301Z,15.60
2017-07-28T21:11:28.975Z,15.60
2017-07-28T21:14:14.455Z,15.50
2017-07-28T21:16:48.019Z,15.50
2017-07-28T21:19:21.644Z,15.50
2017-07-28T21:21:55.395Z,15.40
2017-07-28T21:24:29.264Z,15.40
2017-07-28T21:27:02.903Z,15.40
2017-07-28T21:29:36.521Z,15.40
2017-07-28T21:32:12.199Z,15.30
2017-07-28T21:34:46.149Z,15.20
2017-07-28T21:37:20.671Z,15.30
2017-07-28T21:39:54.309Z,15.20
2017-07-28T21:42:28.009Z,15.20
2017-07-28T21:45:02.609Z,15.10
2017-07-28T21:47:36.319Z,15.10
2017-07-28T21:50:09.909Z,15.10
2017-07-28T21:52:43.751Z,15.10
2017-07-28T21:55:17.318Z,15.10
2017-07-28T21:57:51.360Z,15.00
2017-07-28T22:00:25.025Z,15.00
2017-07-28T22:02:58.652Z,15.00
2017-07-28T22:05:32.356Z,15.00
2017-07-28T22:08:06.020Z,15.00
2017-07-28T22:10:39.866Z,14.90
2017-07-28T22:13:18.197Z,14.90
2017-07-28T22:15:51.918Z,14.90
2017-07-28T22:18:26.438Z,14.90
2017-07-28T22:21:00.532Z,14.90
2017-07-28T22:23:34.279Z,14.80
2017-07-28T22:26:07.931Z,14.80
2017-07-28T22:28:41.536Z,14.80
2017-07-28T22:31:15.074Z,14.70
2017-07-28T22:33:48.654Z,14.70
2017-07-28T22:36:22.177Z,14.70
2017-07-28T22:38:55.760Z,14.60
2017-07-28T22:41:29.356Z,14.60
2017-07-28T22:44:02.918Z,14.60
2017-07-28T22:46:36.652Z,14.60
2017-07-28T22:49:10.500Z,14.60
2017-07-28T22:51:44.114Z,14.50
2017-07-28T22:54:17.845Z,14.40
2017-07-28T22:56:51.447Z,14.30
2017-07-28T22:59:25.081Z,14.40
2017-07-28T23:01:58.673Z,14.50
2017-07-28T23:04:32.289Z,14.50
2017-07-28T23:07:05.915Z,14.40
2017-07-28T23:09:39.479Z,14.50
2017-07-28T23:12:13.785Z,14.40
2017-07-28T23:14:47.330Z,14.40
2017-07-28T23:17:20.909Z,14.50
2017-07-28T23:19:54.502Z,14.50
2017-07-28T23:22:28.388Z,14.50
2017-07-28T23:25:03.584Z,14.50
2017-07-28T23:27:38.087Z,14.40
2017-07-28T23:30:11.786Z,14.40
2017-07-28T23:32:45.672Z,14.40
2017-07-28T23:35:19.386Z,14.40
2017-07-28T23:37:52.934Z,14.20
2017-07-28T23:40:26.535Z,14.10
2017-07-28T23:43:00.339Z,14.20
2017-07-28T23:45:33.970Z,14.30
2017-07-28T23:48:07.621Z,14.40
2017-07-28T23:50:43.051Z,14.30
2017-07-28T23:53:16.726Z,14.30
2017-07-28T23:55:50.537Z,14.30
2017-07-28T23:58:24.526Z,14.30
